Eden, South Dakota
Current Conditions -  °F | °C
As of 10:15 AM on Friday 24 Oct 2014 (Local Time) from KGWR Reporting Station
Clear Clear  
Wind Chill: 52°   Ceiling: Unl
Heat Index: 52°   Visibility: 10mi
Dew Point: 45°   Wind: 15mph
Humidity: 76%   Direction: 240°WSW
Pressure: 29.84"   Gusts: NA
Location:  45.62°N, 97.42°W
Report Text: KGWR 241515Z AUTO 24013KT 10SM CLR 11/07 A2984 RMK A01 P000
Loading
Personal Weather Stations






























Interactive Weather Map
Tropical Storm Tracking
New forecast layout! Learn more

10-Day Weather Forecast

Advertisements
Track Severe Weather on mobile